« Back
NWS Peachtree City, Ga » Text Product » AHN Terminal Aerodrome Forecast


Printer-friendly Version
Current Version              Previous Versions:   1  2  3  4  5  6  7  8  9  

Terminal Aerodrome Forecast

141
FTUS42 KFFC 170521
TAFAHN
TAF
KAHN 170521Z 1706/1806 28005KT P6SM SKC
     FM171400 29009KT P6SM SKC
     FM180000 31007KT P6SM FEW250=

USA.gov is the U.S. government's official web portal to all federal, state and local government web resources and services.